Time;durP1;ratioP1;P1;durP2;ratioP2;P2;SDS_P1;SDS_P2;PMS_P1;PMS_P2;Temp;Humidity;BMP_temperature;BMP_pressure;BME280_temperature;BME280_humidity;BME280_pressure;Samples;Min_cycle;Max_cycle;Signal;HPM_P1;HPM_P2
2023/03/06 00:00:42;;;;;;;1.70;1.60;;;20.20;53.70;;;;;;4943678;29;20447;-89
2023/03/06 00:03:10;;;;;;;1.80;1.57;;;20.20;53.70;;;;;;4924883;29;20467;-88
2023/03/06 00:05:37;;;;;;;1.23;1.13;;;20.20;53.70;;;;;;4923242;29;20443;-88
2023/03/06 00:08:04;;;;;;;1.83;1.27;;;20.20;53.60;;;;;;4923913;29;20943;-88
2023/03/06 00:10:32;;;;;;;1.30;1.20;;;20.20;53.70;;;;;;4923945;29;20848;-88
2023/03/06 00:13:01;;;;;;;1.40;1.30;;;20.20;53.70;;;;;;4942797;29;20446;-89
2023/03/06 00:15:29;;;;;;;1.30;1.20;;;20.20;54.30;;;;;;4938448;29;20915;-88
2023/03/06 00:17:56;;;;;;;1.70;1.30;;;20.20;53.60;;;;;;4919193;29;20487;-88
2023/03/06 00:20:25;;;;;;;1.53;1.43;;;20.20;53.70;;;;;;4919790;29;20467;-88
2023/03/06 00:22:52;;;;;;;2.17;1.53;;;20.20;53.70;;;;;;4919334;29;20443;-88
2023/03/06 00:25:21;;;;;;;1.50;1.40;;;20.10;53.60;;;;;;4919379;29;20499;-88
2023/03/06 00:27:48;;;;;;;1.50;1.40;;;20.10;53.60;;;;;;4919116;29;20456;-88
2023/03/06 00:30:17;;;;;;;1.70;1.60;;;20.10;53.50;;;;;;4918752;29;20447;-88
2023/03/06 00:32:44;;;;;;;1.50;1.23;;;20.10;53.50;;;;;;4918609;29;20573;-88
2023/03/06 00:35:11;;;;;;;2.37;1.40;;;20.10;53.60;;;;;;4919683;29;20448;-88
2023/03/06 00:37:40;;;;;;;1.60;1.50;;;20.10;53.60;;;;;;4918489;29;20490;-88
2023/03/06 00:40:08;;;;;;;1.30;1.10;;;20.10;53.50;;;;;;4919082;29;20482;-88
2023/03/06 00:42:35;;;;;;;2.33;1.50;;;20.20;53.60;;;;;;4918731;29;20829;-88
2023/03/06 00:45:02;;;;;;;1.90;1.50;;;20.10;53.50;;;;;;4917888;29;20449;-88
2023/03/06 00:47:29;;;;;;;1.50;1.37;;;20.10;53.60;;;;;;4932172;29;20506;-89
2023/03/06 00:49:56;;;;;;;1.73;1.63;;;20.10;54.10;;;;;;4933723;29;20440;-90
2023/03/06 00:52:23;;;;;;;1.70;1.40;;;20.10;53.50;;;;;;4932188;29;20447;-92
2023/03/06 00:54:51;;;;;;;1.80;1.57;;;20.10;53.60;;;;;;4932164;29;20475;-89
2023/03/06 00:57:18;;;;;;;2.00;1.53;;;20.10;53.50;;;;;;4930504;29;20447;-89
2023/03/06 00:59:45;;;;;;;1.70;1.30;;;20.10;53.50;;;;;;4930508;29;20539;-89
2023/03/06 01:02:12;;;;;;;1.67;1.40;;;20.10;53.50;;;;;;4932521;29;20424;-89
2023/03/06 01:04:39;;;;;;;1.80;1.53;;;20.10;53.50;;;;;;4932114;29;20448;-89
2023/03/06 01:07:06;;;;;;;2.13;1.47;;;20.10;53.50;;;;;;4931564;29;20443;-93
2023/03/06 01:09:37;;;;;;;1.70;1.37;;;20.10;53.50;;;;;;4932200;29;20465;-91
2023/03/06 01:12:08;;;;;;;1.57;1.47;;;20.10;53.50;;;;;;4932111;29;20491;-88
2023/03/06 01:14:42;;;;;;;2.07;1.83;;;20.10;53.50;;;;;;4931628;29;20932;-91
2023/03/06 01:17:09;;;;;;;1.70;1.47;;;20.10;53.60;;;;;;4931868;29;20471;-90
2023/03/06 01:19:36;;;;;;;1.50;1.40;;;20.10;53.60;;;;;;4932056;29;20559;-92
2023/03/06 01:24:29;;;;;;;1.80;1.57;;;20.00;53.40;;;;;;4951190;23;20498;-89
2023/03/06 01:26:56;;;;;;;1.77;1.37;;;20.10;53.50;;;;;;4952838;29;20211;-91
2023/03/06 01:29:26;;;;;;;1.77;1.60;;;20.00;53.50;;;;;;4951978;29;20515;-92
2023/03/06 01:31:54;;;;;;;2.40;1.50;;;20.10;53.50;;;;;;4952829;29;20960;-89
2023/03/06 01:34:21;;;;;;;1.80;1.50;;;20.00;53.50;;;;;;4951623;29;20523;-90
2023/03/06 01:36:48;;;;;;;1.50;1.40;;;20.10;53.50;;;;;;4952640;29;20474;-92
2023/03/06 01:39:15;;;;;;;1.97;1.20;;;20.00;53.40;;;;;;4947009;23;20558;-89
2023/03/06 01:41:42;;;;;;;2.60;1.73;;;20.00;53.40;;;;;;4931905;29;20500;-90
2023/03/06 01:44:13;;;;;;;1.20;1.00;;;20.00;53.40;;;;;;4932546;29;20487;-92
2023/03/06 01:46:42;;;;;;;1.60;1.30;;;20.00;53.50;;;;;;4931701;29;20448;-90
2023/03/06 01:49:16;;;;;;;1.47;1.37;;;20.00;53.50;;;;;;4933160;29;20467;-89
2023/03/06 01:51:49;;;;;;;2.73;1.30;;;20.00;53.40;;;;;;4929856;29;20447;-89
2023/03/06 01:54:35;;;;;;;1.97;1.27;;;20.00;53.40;;;;;;4931112;29;20452;-94
2023/03/06 01:57:07;;;;;;;2.10;1.47;;;20.00;53.40;;;;;;4934156;29;20456;-89
2023/03/06 01:59:37;;;;;;;2.83;1.23;;;20.00;53.40;;;;;;4937025;29;20486;-95
2023/03/06 02:02:06;;;;;;;1.40;1.30;;;20.00;53.40;;;;;;4934108;29;20838;-91
2023/03/06 02:04:35;;;;;;;1.77;1.53;;;20.00;53.40;;;;;;4935596;29;20538;-94
2023/03/06 02:07:04;;;;;;;1.80;1.67;;;20.00;53.40;;;;;;4935369;29;20527;-93
2023/03/06 02:09:32;;;;;;;1.63;1.20;;;20.00;53.90;;;;;;4959131;23;20942;-92
2023/03/06 02:12:00;;;;;;;1.43;1.33;;;20.00;53.40;;;;;;4954926;29;20437;-90
2023/03/06 02:14:28;;;;;;;1.43;1.33;;;20.00;53.40;;;;;;4954383;29;20439;-90
2023/03/06 02:16:58;;;;;;;1.50;1.40;;;20.00;53.40;;;;;;4955175;29;20455;-89
2023/03/06 02:19:36;;;;;;;1.50;1.27;;;20.00;53.40;;;;;;4949217;23;20487;-91
2023/03/06 02:22:03;;;;;;;1.77;1.30;;;20.00;53.40;;;;;;4935305;29;20513;-89
2023/03/06 02:24:38;;;;;;;1.57;1.40;;;19.90;53.30;;;;;;4936129;29;20454;-88
2023/03/06 02:27:09;;;;;;;1.70;1.37;;;20.00;53.40;;;;;;4934358;29;20443;-89
2023/03/06 02:29:36;;;;;;;1.70;1.60;;;20.00;54.00;;;;;;4937190;29;20435;-90
2023/03/06 02:32:04;;;;;;;1.70;1.37;;;19.90;53.30;;;;;;4936439;29;20456;-92
2023/03/06 02:34:55;;;;;;;1.67;1.57;;;19.90;53.30;;;;;;4935415;29;20507;-91
2023/03/06 02:37:23;;;;;;;1.83;1.63;;;19.90;53.30;;;;;;4937859;29;20482;-92
2023/03/06 02:39:56;;;;;;;2.00;1.80;;;19.90;53.30;;;;;;4936102;29;20589;-91
2023/03/06 02:42:27;;;;;;;1.30;1.20;;;20.00;53.30;;;;;;4935533;29;20504;-91
2023/03/06 02:44:57;;;;;;;1.57;1.47;;;20.00;53.30;;;;;;4967111;23;20851;-91
2023/03/06 02:47:24;;;;;;;2.03;1.40;;;20.00;53.30;;;;;;4958007;28;20514;-89
2023/03/06 02:49:51;;;;;;;4.70;1.83;;;19.90;53.30;;;;;;4964419;28;20446;-91
2023/03/06 02:52:18;;;;;;;1.90;1.67;;;19.90;53.30;;;;;;4960071;28;20478;-89
2023/03/06 02:54:45;;;;;;;1.60;1.50;;;19.90;53.30;;;;;;4954863;29;20462;-90
2023/03/06 02:57:12;;;;;;;1.30;1.20;;;19.90;53.40;;;;;;4960749;23;20549;-90
2023/03/06 02:59:42;;;;;;;1.40;1.30;;;19.90;53.30;;;;;;4955512;29;20510;-90
2023/03/06 03:02:09;;;;;;;1.50;1.30;;;19.90;53.30;;;;;;4953412;29;20423;-89
2023/03/06 03:04:36;;;;;;;1.93;1.77;;;19.90;53.30;;;;;;4962123;23;20569;-93
2023/03/06 03:09:28;;;;;;;2.20;1.70;;;19.90;53.30;;;;;;4938601;23;20475;-92
2023/03/06 03:11:55;;;;;;;1.70;1.50;;;19.90;53.30;;;;;;4937686;29;20239;-90
2023/03/06 03:14:24;;;;;;;2.40;2.20;;;19.90;53.30;;;;;;4937261;29;20483;-89
2023/03/06 03:16:53;;;;;;;1.60;1.50;;;19.90;53.30;;;;;;4934127;29;20444;-89
2023/03/06 03:19:25;;;;;;;1.73;1.63;;;19.90;53.30;;;;;;4951731;23;20570;-89
2023/03/06 03:21:52;;;;;;;1.80;1.70;;;19.90;53.30;;;;;;4953883;29;20522;-89
2023/03/06 03:24:18;;;;;;;1.37;1.27;;;19.90;53.90;;;;;;4954620;29;20473;-94
2023/03/06 03:26:45;;;;;;;1.40;1.30;;;19.90;53.30;;;;;;4954177;29;20617;-92
2023/03/06 03:29:12;;;;;;;1.27;1.17;;;19.90;53.30;;;;;;4953950;29;20482;-89
2023/03/06 03:31:41;;;;;;;1.63;1.40;;;19.90;53.80;;;;;;4953463;29;20466;-91
2023/03/06 03:34:09;;;;;;;1.50;1.40;;;20.00;53.30;;;;;;4959878;23;20487;-89
2023/03/06 03:36:36;;;;;;;1.43;1.33;;;19.90;53.30;;;;;;4936119;29;20471;-89
2023/03/06 03:39:04;;;;;;;1.53;1.43;;;19.90;53.30;;;;;;4936435;29;20468;-89
2023/03/06 03:41:30;;;;;;;1.23;1.13;;;19.90;53.30;;;;;;4935631;29;20444;-93
2023/03/06 03:43:57;;;;;;;1.73;1.57;;;19.90;53.30;;;;;;4935365;29;20443;-89
2023/03/06 03:46:24;;;;;;;1.70;1.53;;;19.90;53.30;;;;;;4952848;23;20494;-93
2023/03/06 03:48:51;;;;;;;2.07;1.87;;;19.80;53.10;;;;;;4961168;23;20521;-89
2023/03/06 03:51:19;;;;;;;1.93;1.77;;;19.90;53.80;;;;;;4953283;29;20451;-94
2023/03/06 03:53:46;;;;;;;1.97;1.50;;;19.90;53.30;;;;;;4953321;29;20533;-90
2023/03/06 03:56:13;;;;;;;1.70;1.47;;;19.80;53.20;;;;;;4953925;29;20469;-94
2023/03/06 04:01:24;;;;;;;1.40;1.30;;;19.80;53.10;;;;;;4952660;29;20445;-90
2023/03/06 04:03:53;;;;;;;1.30;1.20;;;19.80;53.20;;;;;;4953213;29;20439;-89
2023/03/06 04:06:22;;;;;;;1.70;1.60;;;19.80;53.20;;;;;;4951315;29;20485;-89
2023/03/06 04:08:52;;;;;;;1.73;1.53;;;19.80;53.20;;;;;;4954016;29;20514;-88
2023/03/06 04:11:19;;;;;;;2.33;1.60;;;19.80;53.10;;;;;;4952636;29;20451;-89
2023/03/06 04:13:48;;;;;;;1.20;1.10;;;19.80;53.20;;;;;;4952752;29;20451;-94
2023/03/06 04:16:15;;;;;;;1.57;1.30;;;19.80;53.10;;;;;;4954864;29;20451;-89
2023/03/06 04:18:42;;;;;;;1.50;1.40;;;19.80;53.20;;;;;;4952024;29;20512;-89
2023/03/06 04:21:09;;;;;;;1.63;1.40;;;19.80;53.20;;;;;;4942643;29;20478;-89
2023/03/06 04:23:37;;;;;;;1.80;1.57;;;19.80;53.10;;;;;;4932286;29;20435;-90
2023/03/06 04:26:06;;;;;;;2.00;1.70;;;19.80;53.10;;;;;;4936352;29;20504;-93
2023/03/06 04:28:33;;;;;;;1.70;1.60;;;19.80;53.30;;;;;;4932986;29;20451;-91
2023/03/06 04:30:59;;;;;;;1.77;1.60;;;19.80;53.20;;;;;;4930850;29;20511;-89
2023/03/06 04:33:26;;;;;;;1.63;1.10;;;19.80;53.20;;;;;;4932494;29;20434;-91
2023/03/06 04:35:54;;;;;;;1.40;1.30;;;19.80;53.70;;;;;;4932682;29;20456;-89
2023/03/06 04:38:21;;;;;;;1.70;1.40;;;19.80;53.20;;;;;;4934736;29;20455;-92
2023/03/06 04:40:49;;;;;;;1.60;1.50;;;19.80;53.20;;;;;;4936265;29;20811;-90
2023/03/06 04:43:19;;;;;;;1.70;1.60;;;19.80;53.20;;;;;;4934471;29;20472;-89
2023/03/06 04:45:46;;;;;;;1.93;1.83;;;19.70;53.10;;;;;;4931456;29;20932;-88
2023/03/06 04:48:14;;;;;;;1.90;1.70;;;19.80;53.10;;;;;;4922708;29;20518;-90
2023/03/06 04:50:41;;;;;;;1.50;1.40;;;19.80;53.10;;;;;;4933692;29;20452;-89
2023/03/06 04:53:09;;;;;;;2.00;1.50;;;19.80;53.10;;;;;;4933486;29;20955;-88
2023/03/06 04:55:37;;;;;;;1.97;1.50;;;19.80;53.10;;;;;;4933026;29;20538;-89
2023/03/06 04:58:05;;;;;;;2.73;2.00;;;19.80;53.10;;;;;;4943168;29;20446;-88
2023/03/06 05:00:34;;;;;;;2.60;1.70;;;19.80;53.20;;;;;;4951809;29;20494;-89
2023/03/06 05:03:02;;;;;;;2.40;2.00;;;19.70;53.10;;;;;;4959949;28;20423;-89
2023/03/06 05:05:29;;;;;;;3.00;1.90;;;19.70;53.00;;;;;;4961002;28;20465;-90
2023/03/06 05:07:56;;;;;;;2.37;1.40;;;19.70;53.00;;;;;;4942872;29;20467;-89
2023/03/06 05:10:23;;;;;;;1.50;1.40;;;19.70;53.00;;;;;;4944488;29;20534;-88
2023/03/06 05:12:50;;;;;;;2.07;1.87;;;19.70;53.10;;;;;;4943749;29;20465;-88
2023/03/06 05:15:20;;;;;;;2.53;1.40;;;19.70;53.70;;;;;;4952068;29;20519;-89
2023/03/06 05:17:47;;;;;;;1.47;1.37;;;19.70;53.20;;;;;;4948605;29;20851;-88
2023/03/06 05:20:16;;;;;;;1.50;1.40;;;19.70;53.10;;;;;;4961120;28;20484;-89
2023/03/06 05:22:45;;;;;;;1.67;1.57;;;19.70;53.10;;;;;;4955301;28;20486;-88
2023/03/06 05:25:12;;;;;;;1.90;1.63;;;19.70;53.10;;;;;;4947087;29;20482;-89
2023/03/06 05:27:40;;;;;;;1.40;1.30;;;19.70;53.20;;;;;;4952346;29;20503;-89
2023/03/06 05:30:12;;;;;;;1.67;1.40;;;19.70;53.10;;;;;;4948053;29;20550;-90
2023/03/06 05:32:44;;;;;;;1.60;1.50;;;19.70;53.00;;;;;;4950802;29;20474;-92
2023/03/06 05:35:17;;;;;;;2.00;1.80;;;19.70;53.10;;;;;;4934964;29;20617;-88
2023/03/06 05:37:44;;;;;;;1.83;1.20;;;19.70;53.10;;;;;;4936403;29;20466;-89
2023/03/06 05:40:12;;;;;;;1.67;1.20;;;19.70;53.10;;;;;;4934535;29;20492;-88
2023/03/06 05:45:19;;;;;;;1.53;1.20;;;19.70;53.10;;;;;;4953033;23;20479;-88
2023/03/06 05:47:48;;;;;;;1.60;1.30;;;19.70;53.10;;;;;;4933734;29;20487;-89
2023/03/06 05:50:17;;;;;;;1.97;1.40;;;19.60;53.00;;;;;;4933660;29;20542;-90
2023/03/06 05:52:45;;;;;;;1.77;1.53;;;19.70;53.70;;;;;;4934888;29;20439;-90
2023/03/06 05:55:12;;;;;;;1.87;1.70;;;19.70;53.10;;;;;;4936904;29;20467;-96
2023/03/06 05:57:39;;;;;;;2.03;1.70;;;19.70;53.10;;;;;;4938142;29;20448;-93
2023/03/06 06:00:08;;;;;;;1.73;1.63;;;19.70;53.10;;;;;;4938983;29;20491;-95
2023/03/06 06:02:34;;;;;;;1.60;1.43;;;19.70;53.10;;;;;;4938283;29;20482;-95
2023/03/06 06:05:12;;;;;;;1.93;1.33;;;19.70;53.10;;;;;;4938734;29;20458;-89
2023/03/06 06:07:39;;;;;;;1.90;1.60;;;19.70;53.00;;;;;;4949601;23;20836;-94
2023/03/06 06:10:07;;;;;;;2.17;1.60;;;19.60;53.10;;;;;;4958523;28;20451;-89
2023/03/06 06:12:34;;;;;;;3.27;1.77;;;19.60;53.00;;;;;;4947882;29;20447;-89
2023/03/06 06:15:03;;;;;;;1.60;1.40;;;19.60;53.00;;;;;;4939263;29;20493;-90
2023/03/06 06:17:44;;;;;;;2.17;1.93;;;19.60;53.00;;;;;;4952614;29;20446;-96
2023/03/06 06:20:16;;;;;;;2.20;2.00;;;19.70;53.00;;;;;;4955916;29;20553;-88
2023/03/06 06:22:42;;;;;;;1.53;1.37;;;19.70;53.00;;;;;;4956549;29;20474;-95
2023/03/06 06:25:10;;;;;;;1.50;1.40;;;19.60;53.00;;;;;;4956015;29;20471;-95
2023/03/06 06:27:36;;;;;;;2.33;2.03;;;19.60;53.00;;;;;;4952693;28;20522;-95
2023/03/06 06:30:04;;;;;;;2.47;2.00;;;19.70;53.00;;;;;;4939302;29;20543;-90
2023/03/06 06:32:31;;;;;;;2.30;2.10;;;19.70;53.00;;;;;;4938480;29;20461;-96
2023/03/06 06:34:58;;;;;;;2.67;1.80;;;19.60;52.90;;;;;;4939141;29;20436;-96
2023/03/06 06:37:26;;;;;;;1.70;1.60;;;19.70;53.70;;;;;;4938811;29;20526;-96
2023/03/06 06:39:53;;;;;;;2.53;1.93;;;19.60;53.00;;;;;;4939193;29;20487;-96
2023/03/06 06:42:19;;;;;;;1.77;1.63;;;19.60;53.00;;;;;;4939176;29;20450;-96
2023/03/06 06:44:46;;;;;;;2.27;2.07;;;19.70;53.10;;;;;;4941546;29;20540;-96
2023/03/06 06:47:16;;;;;;;3.00;2.07;;;19.70;53.10;;;;;;4943641;29;20541;-96
2023/03/06 06:49:42;;;;;;;2.20;1.87;;;19.70;53.40;;;;;;4943710;29;20822;-96
2023/03/06 06:52:10;;;;;;;2.53;1.73;;;19.70;53.10;;;;;;4942674;29;20446;-95
2023/03/06 06:54:39;;;;;;;2.20;2.00;;;19.60;53.10;;;;;;4944106;29;20451;-92
2023/03/06 06:57:06;;;;;;;2.60;1.97;;;19.70;53.20;;;;;;4943185;29;20465;-91
2023/03/06 06:59:33;;;;;;;2.10;1.63;;;19.70;53.20;;;;;;4923467;29;20494;-90
2023/03/06 07:02:01;;;;;;;2.13;1.93;;;19.70;53.30;;;;;;4938296;29;20473;-92
2023/03/06 15:48:26;;;;;;;2.73;1.47;;;21.20;55.40;;;;;;5746575;23;20485;-96
2023/03/06 15:57:32;;;;;;;93.47;56.47;;;21.20;55.40;;;;;;4887778;29;20428;-96
2023/03/06 16:00:21;;;;;;;91.30;60.00;;;21.30;55.70;;;;;;4959270;29;20474;-95
2023/03/06 16:03:04;;;;;;;102.60;67.90;;;21.10;55.70;;;;;;4958626;29;20476;-96
2023/03/06 16:05:50;;;;;;;101.30;65.50;;;21.20;55.60;;;;;;4958711;29;20450;-95
2023/03/06 16:08:16;;;;;;;92.87;57.30;;;21.10;55.40;;;;;;4958630;29;20501;-95
2023/03/06 16:13:30;;;;;;;81.17;55.47;;;21.20;55.20;;;;;;5597745;23;20502;-91
2023/03/06 16:15:57;;;;;;;40.90;25.20;;;21.20;55.40;;;;;;4950914;23;20498;-90
2023/03/06 16:18:24;;;;;;;36.87;26.37;;;21.20;54.10;;;;;;4938450;29;20473;-95
2023/03/06 16:20:52;;;;;;;32.57;21.70;;;21.10;54.00;;;;;;4938451;29;20558;-91
2023/03/06 16:23:21;;;;;;;30.40;21.10;;;21.00;53.60;;;;;;4938224;29;20549;-91
2023/03/06 16:25:49;;;;;;;31.63;21.90;;;21.10;53.60;;;;;;4938290;29;20876;-91
2023/03/06 17:07:17;;;;;;;23.67;17.47;;;21.10;54.50;;;;;;5671878;23;20488;-93
2023/03/06 17:12:39;;;;;;;23.30;17.53;;;21.00;53.40;;;;;;4942803;29;20474;-95
2023/03/06 18:23:12;;;;;;;13.60;10.37;;;21.00;54.50;;;;;;5673467;23;20461;-90
2023/03/06 18:28:53;;;;;;;14.17;10.33;;;21.00;54.40;;;;;;4937509;29;20533;-91
2023/03/06 20:31:40;;;;;;;6.30;5.63;;;21.20;58.40;;;;;;5097351;23;20533;-94
2023/03/06 20:34:08;;;;;;;9.03;6.50;;;21.20;58.70;;;;;;4957648;23;20482;-93
2023/03/06 20:36:45;;;;;;;9.17;6.73;;;21.20;58.60;;;;;;4951621;29;20463;-94
2023/03/06 20:39:14;;;;;;;7.43;4.97;;;21.20;58.70;;;;;;4933627;29;20446;-93
2023/03/06 20:41:47;;;;;;;7.73;5.17;;;21.40;58.90;;;;;;4947258;29;20492;-93
2023/03/06 20:47:16;;;;;;;7.80;5.30;;;21.30;58.80;;;;;;4955643;28;20449;-95
2023/03/06 20:50:32;;;;;;;7.30;4.90;;;21.30;59.20;;;;;;4980865;23;20531;-94
2023/03/06 20:53:03;;;;;;;11.80;5.00;;;21.30;58.80;;;;;;4954821;28;20443;-96
2023/03/06 21:02:29;;;;;;;7.33;5.00;;;21.40;59.00;;;;;;4887612;29;20463;-96
2023/03/06 21:05:07;;;;;;;5.50;4.20;;;21.30;59.00;;;;;;4950137;23;20515;-94
2023/03/06 21:14:23;;;;;;;5.40;4.33;;;21.40;58.90;;;;;;4846158;29;20510;-95
2023/03/06 21:16:50;;;;;;;7.47;4.40;;;21.40;58.90;;;;;;4846307;29;20486;-95
2023/03/06 21:19:19;;;;;;;6.13;4.10;;;21.40;58.90;;;;;;4846974;29;20459;-93
2023/03/06 21:21:52;;;;;;;4.07;3.73;;;21.50;58.90;;;;;;4907215;29;20567;-91
2023/03/06 21:24:20;;;;;;;4.30;3.87;;;21.40;58.90;;;;;;4922792;29;20536;-96
2023/03/06 21:26:47;;;;;;;4.40;4.00;;;21.40;58.80;;;;;;4923299;29;20436;-95
2023/03/06 21:29:14;;;;;;;6.40;4.50;;;21.50;59.00;;;;;;4922869;29;20526;-94
2023/03/06 21:31:44;;;;;;;6.70;4.20;;;21.30;58.70;;;;;;4923442;29;20554;-96
2023/03/06 21:34:11;;;;;;;4.70;3.77;;;21.50;58.90;;;;;;4923506;29;20487;-95
2023/03/06 21:36:42;;;;;;;4.20;3.80;;;21.50;58.90;;;;;;4922764;29;20455;-95
2023/03/06 21:39:09;;;;;;;6.87;3.60;;;21.50;58.90;;;;;;4922512;29;20464;-96
2023/03/06 21:41:41;;;;;;;4.40;3.70;;;21.50;58.80;;;;;;4924130;29;20513;-96
2023/03/06 21:46:59;;;;;;;6.33;4.23;;;21.50;58.70;;;;;;4927007;29;20470;-96
2023/03/06 21:49:29;;;;;;;3.90;3.50;;;21.50;58.80;;;;;;4927708;29;20456;-96
2023/03/06 21:52:02;;;;;;;8.20;4.30;;;21.50;58.60;;;;;;4928315;29;20499;-96
2023/03/06 21:54:38;;;;;;;4.37;3.27;;;21.50;58.70;;;;;;4927982;29;20452;-96
2023/03/06 21:57:06;;;;;;;4.60;3.77;;;21.50;58.50;;;;;;4926636;29;20507;-96
2023/03/06 21:59:33;;;;;;;4.60;3.83;;;21.50;58.50;;;;;;4922051;29;20447;-96
2023/03/06 22:02:01;;;;;;;3.80;3.50;;;21.50;58.40;;;;;;4922839;29;20493;-96
2023/03/06 22:04:28;;;;;;;4.40;3.90;;;21.30;58.30;;;;;;4921511;29;20455;-96
2023/03/06 22:06:57;;;;;;;4.00;3.60;;;21.60;58.20;;;;;;4904821;29;20505;-96
2023/03/06 22:09:26;;;;;;;4.00;3.30;;;21.40;58.20;;;;;;4902383;29;20460;-96
2023/03/06 22:11:56;;;;;;;4.13;3.73;;;21.40;58.10;;;;;;4904643;29;20471;-96
2023/03/06 22:14:30;;;;;;;4.37;3.57;;;21.40;58.00;;;;;;4909789;29;20455;-96
2023/03/06 22:16:57;;;;;;;3.50;3.20;;;21.40;58.10;;;;;;4908396;29;20493;-96
2023/03/06 22:19:25;;;;;;;4.93;3.80;;;21.40;57.90;;;;;;4907646;29;20456;-96
2023/03/06 22:21:52;;;;;;;3.50;3.20;;;21.40;57.90;;;;;;4908135;29;20547;-96
2023/03/06 22:24:22;;;;;;;3.47;3.17;;;21.40;57.90;;;;;;4908501;29;20548;-96
2023/03/06 22:26:49;;;;;;;3.77;3.40;;;21.40;57.80;;;;;;4908635;29;20452;-96
2023/03/06 22:29:17;;;;;;;3.50;3.20;;;21.30;57.60;;;;;;4908379;29;20454;-96
2023/03/06 22:31:44;;;;;;;2.97;2.77;;;21.30;57.80;;;;;;4909543;29;20452;-96
2023/03/06 22:34:13;;;;;;;3.50;3.20;;;21.30;57.60;;;;;;4910073;29;20534;-96
2023/03/06 22:36:43;;;;;;;3.23;2.93;;;21.30;57.60;;;;;;4909623;29;20460;-96
2023/03/06 22:39:14;;;;;;;3.20;2.90;;;21.30;57.90;;;;;;4908744;29;20456;-96
2023/03/06 22:41:43;;;;;;;3.77;3.47;;;21.30;57.60;;;;;;4906459;29;20534;-96
2023/03/06 22:44:15;;;;;;;3.57;3.27;;;21.30;57.50;;;;;;4906992;29;20495;-96
2023/03/06 22:46:43;;;;;;;4.40;4.00;;;21.30;57.80;;;;;;4906749;29;20481;-96
2023/03/06 22:49:20;;;;;;;3.50;3.20;;;21.30;57.50;;;;;;4907059;29;20483;-96
2023/03/06 22:51:48;;;;;;;3.47;3.17;;;21.20;57.40;;;;;;4907931;29;20503;-96
2023/03/06 22:54:16;;;;;;;3.77;3.40;;;21.20;57.40;;;;;;4908535;29;20585;-96
2023/03/06 22:56:47;;;;;;;4.53;3.30;;;21.20;57.40;;;;;;4908060;29;20525;-96
2023/03/06 22:59:14;;;;;;;3.10;2.90;;;21.20;57.50;;;;;;4909966;29;20440;-96
2023/03/06 23:01:43;;;;;;;3.30;3.00;;;21.20;57.40;;;;;;4908951;29;20488;-96
2023/03/06 23:04:11;;;;;;;3.33;2.60;;;21.20;57.40;;;;;;4910037;29;20476;-96
2023/03/06 23:06:45;;;;;;;3.33;3.10;;;21.30;57.50;;;;;;4913090;29;20480;-96
2023/03/06 23:09:15;;;;;;;3.10;2.83;;;21.30;57.50;;;;;;4910569;29;20458;-96
2023/03/06 23:11:44;;;;;;;3.53;3.10;;;21.20;57.30;;;;;;4909186;29;20467;-96
2023/03/06 23:14:12;;;;;;;3.17;2.93;;;21.20;57.30;;;;;;4908992;29;20538;-96
2023/03/06 23:16:39;;;;;;;3.50;3.20;;;21.20;57.30;;;;;;4910603;29;20468;-96
2023/03/06 23:19:07;;;;;;;3.50;3.20;;;21.10;57.30;;;;;;4914100;29;20814;-96
2023/03/06 23:21:35;;;;;;;4.77;2.77;;;21.10;57.30;;;;;;4914422;29;20548;-96
2023/03/06 23:24:03;;;;;;;3.40;2.40;;;21.10;57.20;;;;;;4922057;29;20443;-96
2023/03/06 23:26:32;;;;;;;3.50;3.20;;;21.10;57.20;;;;;;4924647;29;20441;-96
2023/03/06 23:29:03;;;;;;;4.00;3.37;;;20.90;57.10;;;;;;4911050;29;20535;-96
2023/03/06 23:31:31;;;;;;;2.87;2.40;;;21.10;57.20;;;;;;4904690;29;20488;-96
2023/03/06 23:34:03;;;;;;;2.97;2.77;;;21.10;57.10;;;;;;4906113;29;20457;-96
2023/03/06 23:36:31;;;;;;;3.43;2.63;;;21.10;57.10;;;;;;4906841;29;20999;-96
2023/03/06 23:38:59;;;;;;;3.20;2.70;;;21.10;57.10;;;;;;4905201;29;20516;-96
2023/03/06 23:41:27;;;;;;;3.17;2.87;;;21.10;57.00;;;;;;4904625;29;20485;-96
2023/03/06 23:43:54;;;;;;;2.40;2.20;;;21.10;57.60;;;;;;4905602;29;20680;-96
2023/03/06 23:46:23;;;;;;;3.13;2.93;;;21.10;57.00;;;;;;4904896;29;21020;-96
2023/03/06 23:48:50;;;;;;;2.93;2.63;;;21.00;56.90;;;;;;4921620;29;20456;-96
2023/03/06 23:51:19;;;;;;;2.53;2.33;;;20.90;56.80;;;;;;4922434;29;20519;-96
2023/03/06 23:53:47;;;;;;;3.23;2.93;;;21.10;57.00;;;;;;4923294;29;20960;-96
2023/03/06 23:56:16;;;;;;;2.60;2.40;;;21.00;56.90;;;;;;4923856;29;20480;-96
2023/03/06 23:58:44;;;;;;;2.80;2.60;;;21.10;56.90;;;;;;4907200;29;20447;-96
